sensor_id;sensor_type;location;lat;lon;timestamp;P1;durP1;ratioP1;P2;durP2;ratioP2
47866;SDS011;33628;50.806;11.586;2024-02-15T00:02:14;1019.53;;;827.42;;
47866;SDS011;33628;50.806;11.586;2024-02-15T00:04:41;536.40;;;382.15;;
47866;SDS011;33628;50.806;11.586;2024-02-15T00:07:09;1122.10;;;762.03;;
47866;SDS011;33628;50.806;11.586;2024-02-15T00:09:36;957.85;;;625.25;;
47866;SDS011;33628;50.806;11.586;2024-02-15T00:12:02;4.93;;;2.83;;
47866;SDS011;33628;50.806;11.586;2024-02-15T00:14:29;4.60;;;2.60;;
47866;SDS011;33628;50.806;11.586;2024-02-15T00:16:57;6.13;;;3.70;;
47866;SDS011;33628;50.806;11.586;2024-02-15T00:19:24;212.32;;;139.27;;
47866;SDS011;33628;50.806;11.586;2024-02-15T00:21:51;590.75;;;426.35;;
47866;SDS011;33628;50.806;11.586;2024-02-15T00:24:19;786.95;;;534.70;;
47866;SDS011;33628;50.806;11.586;2024-02-15T00:26:46;125.00;;;85.72;;
47866;SDS011;33628;50.806;11.586;2024-02-15T00:29:13;5.82;;;3.10;;
47866;SDS011;33628;50.806;11.586;2024-02-15T00:31:40;4.88;;;3.33;;
47866;SDS011;33628;50.806;11.586;2024-02-15T00:34:06;6.15;;;3.30;;
47866;SDS011;33628;50.806;11.586;2024-02-15T00:36:34;4.95;;;3.35;;
47866;SDS011;33628;50.806;11.586;2024-02-15T00:39:00;731.08;;;479.55;;
47866;SDS011;33628;50.806;11.586;2024-02-15T00:41:28;264.58;;;161.63;;
47866;SDS011;33628;50.806;11.586;2024-02-15T00:43:55;4.68;;;3.15;;
47866;SDS011;33628;50.806;11.586;2024-02-15T00:46:21;8.15;;;4.88;;
47866;SDS011;33628;50.806;11.586;2024-02-15T00:48:48;5.53;;;3.00;;
47866;SDS011;33628;50.806;11.586;2024-02-15T00:51:15;5.13;;;2.80;;
47866;SDS011;33628;50.806;11.586;2024-02-15T00:53:41;5.95;;;3.13;;
47866;SDS011;33628;50.806;11.586;2024-02-15T00:56:08;3.92;;;2.40;;
47866;SDS011;33628;50.806;11.586;2024-02-15T00:58:36;4.30;;;2.28;;
47866;SDS011;33628;50.806;11.586;2024-02-15T01:01:02;3.25;;;2.38;;
47866;SDS011;33628;50.806;11.586;2024-02-15T01:03:29;5.85;;;2.60;;
47866;SDS011;33628;50.806;11.586;2024-02-15T01:05:56;3.25;;;2.17;;
47866;SDS011;33628;50.806;11.586;2024-02-15T01:08:23;3.63;;;2.28;;
47866;SDS011;33628;50.806;11.586;2024-02-15T01:10:49;2.97;;;1.80;;
47866;SDS011;33628;50.806;11.586;2024-02-15T01:13:16;4.10;;;2.10;;
47866;SDS011;33628;50.806;11.586;2024-02-15T01:15:44;2.97;;;2.17;;
47866;SDS011;33628;50.806;11.586;2024-02-15T01:18:12;3.38;;;2.22;;
47866;SDS011;33628;50.806;11.586;2024-02-15T01:20:39;3.70;;;2.60;;
47866;SDS011;33628;50.806;11.586;2024-02-15T01:23:06;2.42;;;1.98;;
47866;SDS011;33628;50.806;11.586;2024-02-15T01:25:33;3.60;;;2.25;;
47866;SDS011;33628;50.806;11.586;2024-02-15T01:27:59;4.30;;;2.50;;
47866;SDS011;33628;50.806;11.586;2024-02-15T01:30:27;4.72;;;1.95;;
47866;SDS011;33628;50.806;11.586;2024-02-15T01:32:56;3.08;;;1.95;;
47866;SDS011;33628;50.806;11.586;2024-02-15T01:35:22;2.40;;;1.70;;
47866;SDS011;33628;50.806;11.586;2024-02-15T01:37:49;1.90;;;1.70;;
47866;SDS011;33628;50.806;11.586;2024-02-15T01:40:15;3.30;;;2.20;;
47866;SDS011;33628;50.806;11.586;2024-02-15T01:42:44;2.88;;;2.00;;
47866;SDS011;33628;50.806;11.586;2024-02-15T01:45:11;4.93;;;2.63;;
47866;SDS011;33628;50.806;11.586;2024-02-15T01:47:37;2.97;;;2.03;;
47866;SDS011;33628;50.806;11.586;2024-02-15T01:50:09;3.08;;;2.22;;
47866;SDS011;33628;50.806;11.586;2024-02-15T01:52:37;3.33;;;1.80;;
47866;SDS011;33628;50.806;11.586;2024-02-15T01:55:04;3.33;;;2.17;;
47866;SDS011;33628;50.806;11.586;2024-02-15T01:57:34;4.68;;;2.40;;
47866;SDS011;33628;50.806;11.586;2024-02-15T02:00:01;4.07;;;2.20;;
47866;SDS011;33628;50.806;11.586;2024-02-15T02:02:37;3.80;;;2.15;;
47866;SDS011;33628;50.806;11.586;2024-02-15T02:05:04;5.20;;;2.25;;
47866;SDS011;33628;50.806;11.586;2024-02-15T02:07:33;3.20;;;2.10;;
47866;SDS011;33628;50.806;11.586;2024-02-15T02:10:00;2.83;;;2.50;;
47866;SDS011;33628;50.806;11.586;2024-02-15T02:12:27;3.22;;;1.98;;
47866;SDS011;33628;50.806;11.586;2024-02-15T02:14:53;6.80;;;2.72;;
47866;SDS011;33628;50.806;11.586;2024-02-15T02:17:20;4.63;;;2.22;;
47866;SDS011;33628;50.806;11.586;2024-02-15T02:19:47;3.85;;;2.40;;
47866;SDS011;33628;50.806;11.586;2024-02-15T02:22:16;2.88;;;1.90;;
47866;SDS011;33628;50.806;11.586;2024-02-15T02:25:01;4.05;;;2.20;;
47866;SDS011;33628;50.806;11.586;2024-02-15T02:27:29;3.75;;;2.30;;
47866;SDS011;33628;50.806;11.586;2024-02-15T02:29:57;3.10;;;2.22;;
47866;SDS011;33628;50.806;11.586;2024-02-15T02:32:25;2.55;;;1.98;;
47866;SDS011;33628;50.806;11.586;2024-02-15T02:34:52;4.28;;;2.00;;
47866;SDS011;33628;50.806;11.586;2024-02-15T02:37:23;2.92;;;2.00;;
47866;SDS011;33628;50.806;11.586;2024-02-15T02:39:50;4.72;;;2.08;;
47866;SDS011;33628;50.806;11.586;2024-02-15T02:42:18;2.70;;;2.00;;
47866;SDS011;33628;50.806;11.586;2024-02-15T02:44:44;4.38;;;2.50;;
47866;SDS011;33628;50.806;11.586;2024-02-15T02:47:11;3.50;;;2.20;;
47866;SDS011;33628;50.806;11.586;2024-02-15T02:49:38;31.60;;;16.95;;
47866;SDS011;33628;50.806;11.586;2024-02-15T02:52:04;15.55;;;9.00;;
47866;SDS011;33628;50.806;11.586;2024-02-15T02:54:31;3.75;;;2.55;;
47866;SDS011;33628;50.806;11.586;2024-02-15T02:56:59;4.63;;;2.42;;
47866;SDS011;33628;50.806;11.586;2024-02-15T02:59:27;5.10;;;3.08;;
47866;SDS011;33628;50.806;11.586;2024-02-15T03:01:54;4.13;;;2.55;;
47866;SDS011;33628;50.806;11.586;2024-02-15T03:04:22;3.40;;;2.47;;
47866;SDS011;33628;50.806;11.586;2024-02-15T03:06:48;5.05;;;3.25;;
47866;SDS011;33628;50.806;11.586;2024-02-15T03:09:15;5.32;;;2.55;;
47866;SDS011;33628;50.806;11.586;2024-02-15T03:11:42;31.58;;;18.30;;
47866;SDS011;33628;50.806;11.586;2024-02-15T03:14:08;4.45;;;2.65;;
47866;SDS011;33628;50.806;11.586;2024-02-15T03:16:36;4.22;;;2.45;;
47866;SDS011;33628;50.806;11.586;2024-02-15T03:19:03;383.90;;;251.73;;
47866;SDS011;33628;50.806;11.586;2024-02-15T03:21:30;116.13;;;74.60;;
47866;SDS011;33628;50.806;11.586;2024-02-15T03:23:57;11.15;;;10.27;;
47866;SDS011;33628;50.806;11.586;2024-02-15T03:26:29;3.03;;;2.25;;
47866;SDS011;33628;50.806;11.586;2024-02-15T03:28:57;3.35;;;2.05;;
47866;SDS011;33628;50.806;11.586;2024-02-15T03:31:24;4.35;;;2.63;;
47866;SDS011;33628;50.806;11.586;2024-02-15T03:33:52;3.92;;;2.92;;
47866;SDS011;33628;50.806;11.586;2024-02-15T03:36:20;4.70;;;3.17;;
47866;SDS011;33628;50.806;11.586;2024-02-15T03:38:47;6.60;;;3.45;;
47866;SDS011;33628;50.806;11.586;2024-02-15T03:41:14;31.88;;;12.30;;
47866;SDS011;33628;50.806;11.586;2024-02-15T03:43:40;13.60;;;5.43;;
47866;SDS011;33628;50.806;11.586;2024-02-15T03:46:07;20.45;;;6.57;;
47866;SDS011;33628;50.806;11.586;2024-02-15T03:48:38;6.95;;;3.53;;
47866;SDS011;33628;50.806;11.586;2024-02-15T03:51:06;5.05;;;3.35;;
47866;SDS011;33628;50.806;11.586;2024-02-15T03:53:32;12.18;;;3.67;;
47866;SDS011;33628;50.806;11.586;2024-02-15T03:55:59;885.40;;;594.20;;
47866;SDS011;33628;50.806;11.586;2024-02-15T03:58:26;951.83;;;546.22;;
47866;SDS011;33628;50.806;11.586;2024-02-15T04:00:53;9.07;;;7.97;;
47866;SDS011;33628;50.806;11.586;2024-02-15T04:03:21;1580.70;;;999.90;;
47866;SDS011;33628;50.806;11.586;2024-02-15T04:05:48;121.10;;;72.35;;
47866;SDS011;33628;50.806;11.586;2024-02-15T04:08:16;18.75;;;12.55;;
47866;SDS011;33628;50.806;11.586;2024-02-15T04:10:42;462.27;;;271.45;;
47866;SDS011;33628;50.806;11.586;2024-02-15T04:13:11;12.32;;;6.10;;
47866;SDS011;33628;50.806;11.586;2024-02-15T04:15:38;398.80;;;211.07;;
47866;SDS011;33628;50.806;11.586;2024-02-15T04:18:04;9.90;;;3.65;;
47866;SDS011;33628;50.806;11.586;2024-02-15T04:20:31;7.13;;;3.80;;
47866;SDS011;33628;50.806;11.586;2024-02-15T04:22:58;30.83;;;28.52;;
47866;SDS011;33628;50.806;11.586;2024-02-15T04:25:27;135.95;;;114.90;;
47866;SDS011;33628;50.806;11.586;2024-02-15T04:27:53;41.58;;;35.95;;
47866;SDS011;33628;50.806;11.586;2024-02-15T04:30:20;37.30;;;34.47;;
47866;SDS011;33628;50.806;11.586;2024-02-15T04:32:49;10.50;;;4.25;;
47866;SDS011;33628;50.806;11.586;2024-02-15T04:35:17;6.18;;;3.65;;
47866;SDS011;33628;50.806;11.586;2024-02-15T04:37:44;7.72;;;4.25;;
47866;SDS011;33628;50.806;11.586;2024-02-15T04:40:12;5.80;;;4.03;;
47866;SDS011;33628;50.806;11.586;2024-02-15T04:42:40;6.43;;;4.20;;
47866;SDS011;33628;50.806;11.586;2024-02-15T04:45:09;8.85;;;3.83;;
47866;SDS011;33628;50.806;11.586;2024-02-15T04:47:36;8.95;;;4.25;;
47866;SDS011;33628;50.806;11.586;2024-02-15T04:50:03;9.70;;;3.85;;
47866;SDS011;33628;50.806;11.586;2024-02-15T04:52:31;8.52;;;7.60;;
47866;SDS011;33628;50.806;11.586;2024-02-15T04:54:58;871.13;;;638.08;;
47866;SDS011;33628;50.806;11.586;2024-02-15T04:57:24;268.35;;;195.18;;
47866;SDS011;33628;50.806;11.586;2024-02-15T04:59:55;544.47;;;366.17;;
47866;SDS011;33628;50.806;11.586;2024-02-15T05:02:22;680.90;;;516.08;;
47866;SDS011;33628;50.806;11.586;2024-02-15T05:04:50;643.78;;;502.52;;
47866;SDS011;33628;50.806;11.586;2024-02-15T05:07:22;850.28;;;610.17;;
47866;SDS011;33628;50.806;11.586;2024-02-15T05:09:48;1122.80;;;858.35;;
47866;SDS011;33628;50.806;11.586;2024-02-15T05:12:21;846.53;;;526.88;;
47866;SDS011;33628;50.806;11.586;2024-02-15T05:14:48;1070.72;;;662.10;;
47866;SDS011;33628;50.806;11.586;2024-02-15T05:17:17;15.15;;;7.53;;
47866;SDS011;33628;50.806;11.586;2024-02-15T05:19:44;13.57;;;7.38;;
47866;SDS011;33628;50.806;11.586;2024-02-15T05:22:10;14.52;;;6.63;;
47866;SDS011;33628;50.806;11.586;2024-02-15T05:24:37;17.92;;;9.10;;
47866;SDS011;33628;50.806;11.586;2024-02-15T05:27:07;23.08;;;9.93;;
47866;SDS011;33628;50.806;11.586;2024-02-15T05:29:33;24.58;;;10.80;;
47866;SDS011;33628;50.806;11.586;2024-02-15T05:32:00;15.50;;;8.20;;
47866;SDS011;33628;50.806;11.586;2024-02-15T05:34:28;24.38;;;11.10;;
47866;SDS011;33628;50.806;11.586;2024-02-15T05:36:55;19.33;;;9.70;;
47866;SDS011;33628;50.806;11.586;2024-02-15T05:39:21;15.95;;;8.23;;
47866;SDS011;33628;50.806;11.586;2024-02-15T05:41:48;13.27;;;6.13;;
47866;SDS011;33628;50.806;11.586;2024-02-15T05:44:15;12.35;;;6.25;;
47866;SDS011;33628;50.806;11.586;2024-02-15T05:46:46;10.57;;;6.80;;
47866;SDS011;33628;50.806;11.586;2024-02-15T05:49:13;10.00;;;5.55;;
47866;SDS011;33628;50.806;11.586;2024-02-15T05:51:44;9.73;;;5.95;;
47866;SDS011;33628;50.806;11.586;2024-02-15T05:54:13;10.18;;;5.43;;
47866;SDS011;33628;50.806;11.586;2024-02-15T05:56:39;8.48;;;3.90;;
47866;SDS011;33628;50.806;11.586;2024-02-15T05:59:07;8.93;;;4.43;;
47866;SDS011;33628;50.806;11.586;2024-02-15T06:01:36;6.38;;;3.90;;
47866;SDS011;33628;50.806;11.586;2024-02-15T06:04:03;71.63;;;55.40;;
47866;SDS011;33628;50.806;11.586;2024-02-15T06:06:30;5.35;;;3.42;;
47866;SDS011;33628;50.806;11.586;2024-02-15T06:08:58;264.20;;;166.88;;
47866;SDS011;33628;50.806;11.586;2024-02-15T06:11:26;6.28;;;3.08;;
47866;SDS011;33628;50.806;11.586;2024-02-15T06:13:53;73.65;;;45.25;;
47866;SDS011;33628;50.806;11.586;2024-02-15T06:16:19;10.68;;;5.45;;
47866;SDS011;33628;50.806;11.586;2024-02-15T06:18:46;14.00;;;5.60;;
47866;SDS011;33628;50.806;11.586;2024-02-15T06:21:14;13.55;;;5.40;;
47866;SDS011;33628;50.806;11.586;2024-02-15T06:23:42;10.00;;;4.20;;
47866;SDS011;33628;50.806;11.586;2024-02-15T06:26:10;12.13;;;5.38;;
47866;SDS011;33628;50.806;11.586;2024-02-15T06:28:37;18.50;;;7.47;;
47866;SDS011;33628;50.806;11.586;2024-02-15T06:31:22;15.90;;;6.28;;
47866;SDS011;33628;50.806;11.586;2024-02-15T06:34:08;1021.28;;;665.38;;
47866;SDS011;33628;50.806;11.586;2024-02-15T06:36:54;257.90;;;183.55;;
47866;SDS011;33628;50.806;11.586;2024-02-15T06:42:08;1600.38;;;968.83;;
47866;SDS011;33628;50.806;11.586;2024-02-15T06:44:37;512.25;;;352.60;;
47866;SDS011;33628;50.806;11.586;2024-02-15T06:47:06;1700.25;;;999.90;;
47866;SDS011;33628;50.806;11.586;2024-02-15T06:49:36;1737.95;;;999.90;;
47866;SDS011;33628;50.806;11.586;2024-02-15T06:52:05;23.08;;;20.90;;
47866;SDS011;33628;50.806;11.586;2024-02-15T06:54:33;12.85;;;5.68;;
47866;SDS011;33628;50.806;11.586;2024-02-15T06:57:01;1001.80;;;737.80;;
47866;SDS011;33628;50.806;11.586;2024-02-15T06:59:29;65.18;;;58.50;;
47866;SDS011;33628;50.806;11.586;2024-02-15T07:01:57;1464.07;;;920.47;;
47866;SDS011;33628;50.806;11.586;2024-02-15T07:04:24;231.63;;;178.23;;
47866;SDS011;33628;50.806;11.586;2024-02-15T07:06:51;1838.28;;;999.90;;
47866;SDS011;33628;50.806;11.586;2024-02-15T07:09:20;1746.18;;;999.90;;
47866;SDS011;33628;50.806;11.586;2024-02-15T07:11:48;12.65;;;11.27;;
47866;SDS011;33628;50.806;11.586;2024-02-15T07:14:15;1932.07;;;999.90;;
47866;SDS011;33628;50.806;11.586;2024-02-15T07:16:45;1938.25;;;999.90;;
47866;SDS011;33628;50.806;11.586;2024-02-15T07:19:12;1390.38;;;999.90;;
47866;SDS011;33628;50.806;11.586;2024-02-15T07:21:39;1662.38;;;999.90;;
47866;SDS011;33628;50.806;11.586;2024-02-15T07:24:06;1097.82;;;856.90;;
47866;SDS011;33628;50.806;11.586;2024-02-15T07:26:32;1980.43;;;999.90;;
47866;SDS011;33628;50.806;11.586;2024-02-15T07:29:00;1377.97;;;999.90;;
47866;SDS011;33628;50.806;11.586;2024-02-15T07:31:28;975.47;;;743.33;;
47866;SDS011;33628;50.806;11.586;2024-02-15T07:33:57;8.30;;;5.50;;
47866;SDS011;33628;50.806;11.586;2024-02-15T07:36:24;6.97;;;4.75;;
47866;SDS011;33628;50.806;11.586;2024-02-15T07:38:51;9.38;;;4.65;;
47866;SDS011;33628;50.806;11.586;2024-02-15T07:41:26;5.82;;;3.72;;
47866;SDS011;33628;50.806;11.586;2024-02-15T07:43:53;5.85;;;4.07;;
47866;SDS011;33628;50.806;11.586;2024-02-15T07:46:21;6.80;;;4.03;;
47866;SDS011;33628;50.806;11.586;2024-02-15T07:48:48;7.80;;;4.43;;
47866;SDS011;33628;50.806;11.586;2024-02-15T07:51:16;9.52;;;4.97;;
47866;SDS011;33628;50.806;11.586;2024-02-15T07:53:46;10.45;;;5.22;;
47866;SDS011;33628;50.806;11.586;2024-02-15T07:56:13;6.63;;;4.07;;
47866;SDS011;33628;50.806;11.586;2024-02-15T07:58:41;213.90;;;141.65;;
47866;SDS011;33628;50.806;11.586;2024-02-15T08:01:08;554.75;;;382.90;;
47866;SDS011;33628;50.806;11.586;2024-02-15T08:03:35;425.45;;;293.08;;
47866;SDS011;33628;50.806;11.586;2024-02-15T08:06:02;823.15;;;613.40;;
47866;SDS011;33628;50.806;11.586;2024-02-15T08:08:34;9.15;;;4.78;;
47866;SDS011;33628;50.806;11.586;2024-02-15T08:11:01;9.07;;;4.93;;
47866;SDS011;33628;50.806;11.586;2024-02-15T08:13:28;563.08;;;376.67;;
47866;SDS011;33628;50.806;11.586;2024-02-15T08:15:55;8.57;;;4.50;;
47866;SDS011;33628;50.806;11.586;2024-02-15T08:18:21;8.70;;;5.43;;
47866;SDS011;33628;50.806;11.586;2024-02-15T08:20:48;695.25;;;500.98;;
47866;SDS011;33628;50.806;11.586;2024-02-15T08:23:14;696.50;;;508.35;;
47866;SDS011;33628;50.806;11.586;2024-02-15T08:25:42;626.50;;;467.90;;
47866;SDS011;33628;50.806;11.586;2024-02-15T08:28:09;10.90;;;5.95;;
47866;SDS011;33628;50.806;11.586;2024-02-15T08:30:36;256.30;;;175.10;;
47866;SDS011;33628;50.806;11.586;2024-02-15T08:33:03;524.85;;;368.15;;
47866;SDS011;33628;50.806;11.586;2024-02-15T08:35:30;506.95;;;332.48;;
47866;SDS011;33628;50.806;11.586;2024-02-15T08:37:57;117.38;;;67.35;;
47866;SDS011;33628;50.806;11.586;2024-02-15T08:40:24;127.97;;;79.50;;
47866;SDS011;33628;50.806;11.586;2024-02-15T08:42:52;14.90;;;8.95;;
47866;SDS011;33628;50.806;11.586;2024-02-15T08:45:19;299.40;;;190.63;;
47866;SDS011;33628;50.806;11.586;2024-02-15T08:47:47;600.85;;;415.75;;
47866;SDS011;33628;50.806;11.586;2024-02-15T08:50:15;4.82;;;3.05;;
47866;SDS011;33628;50.806;11.586;2024-02-15T08:52:43;35.80;;;21.10;;
47866;SDS011;33628;50.806;11.586;2024-02-15T08:55:09;808.63;;;587.97;;
47866;SDS011;33628;50.806;11.586;2024-02-15T08:57:40;681.10;;;489.02;;
47866;SDS011;33628;50.806;11.586;2024-02-15T09:00:09;5.20;;;3.30;;
47866;SDS011;33628;50.806;11.586;2024-02-15T09:02:39;4.75;;;3.13;;
47866;SDS011;33628;50.806;11.586;2024-02-15T09:05:06;6.75;;;3.30;;
47866;SDS011;33628;50.806;11.586;2024-02-15T09:07:33;5.82;;;2.97;;
47866;SDS011;33628;50.806;11.586;2024-02-15T09:09:59;4.88;;;2.97;;
47866;SDS011;33628;50.806;11.586;2024-02-15T09:12:25;4.57;;;3.13;;
47866;SDS011;33628;50.806;11.586;2024-02-15T09:14:52;6.10;;;3.00;;
47866;SDS011;33628;50.806;11.586;2024-02-15T09:17:20;4.93;;;3.38;;
47866;SDS011;33628;50.806;11.586;2024-02-15T09:19:46;6.85;;;2.97;;
47866;SDS011;33628;50.806;11.586;2024-02-15T09:22:15;5.25;;;2.88;;
47866;SDS011;33628;50.806;11.586;2024-02-15T09:24:42;8.13;;;2.72;;
47866;SDS011;33628;50.806;11.586;2024-02-15T09:27:08;5.07;;;2.97;;
47866;SDS011;33628;50.806;11.586;2024-02-15T09:29:37;12.43;;;6.18;;
47866;SDS011;33628;50.806;11.586;2024-02-15T09:32:06;11.55;;;4.72;;
47866;SDS011;33628;50.806;11.586;2024-02-15T09:34:34;7.80;;;4.18;;
47866;SDS011;33628;50.806;11.586;2024-02-15T09:37:00;12.82;;;5.78;;
47866;SDS011;33628;50.806;11.586;2024-02-15T09:39:27;18.45;;;6.00;;
47866;SDS011;33628;50.806;11.586;2024-02-15T09:41:54;6.53;;;3.08;;
47866;SDS011;33628;50.806;11.586;2024-02-15T09:44:26;7.13;;;4.70;;
47866;SDS011;33628;50.806;11.586;2024-02-15T09:46:57;7.90;;;4.28;;
47866;SDS011;33628;50.806;11.586;2024-02-15T09:49:29;274.10;;;196.63;;
47866;SDS011;33628;50.806;11.586;2024-02-15T09:51:57;423.77;;;278.20;;
47866;SDS011;33628;50.806;11.586;2024-02-15T09:54:26;725.30;;;521.25;;
47866;SDS011;33628;50.806;11.586;2024-02-15T09:56:52;1152.20;;;896.25;;
47866;SDS011;33628;50.806;11.586;2024-02-15T09:59:20;759.92;;;545.85;;
47866;SDS011;33628;50.806;11.586;2024-02-15T10:01:47;967.22;;;725.85;;
47866;SDS011;33628;50.806;11.586;2024-02-15T10:04:15;404.55;;;308.85;;
47866;SDS011;33628;50.806;11.586;2024-02-15T10:06:42;471.75;;;290.05;;
47866;SDS011;33628;50.806;11.586;2024-02-15T10:09:26;913.65;;;671.20;;
47866;SDS011;33628;50.806;11.586;2024-02-15T10:11:56;813.92;;;584.53;;
47866;SDS011;33628;50.806;11.586;2024-02-15T10:14:23;730.63;;;522.90;;
47866;SDS011;33628;50.806;11.586;2024-02-15T10:16:50;511.48;;;322.38;;
47866;SDS011;33628;50.806;11.586;2024-02-15T10:19:18;4.68;;;3.13;;
47866;SDS011;33628;50.806;11.586;2024-02-15T10:21:46;5.15;;;4.07;;
47866;SDS011;33628;50.806;11.586;2024-02-15T10:24:13;5.10;;;4.50;;
47866;SDS011;33628;50.806;11.586;2024-02-15T10:26:41;80.13;;;60.63;;
47866;SDS011;33628;50.806;11.586;2024-02-15T10:29:08;801.50;;;570.95;;
47866;SDS011;33628;50.806;11.586;2024-02-15T10:31:36;850.25;;;607.03;;
47866;SDS011;33628;50.806;11.586;2024-02-15T10:34:04;300.08;;;195.90;;
47866;SDS011;33628;50.806;11.586;2024-02-15T10:36:31;622.83;;;413.55;;
47866;SDS011;33628;50.806;11.586;2024-02-15T10:39:12;752.33;;;523.95;;
47866;SDS011;33628;50.806;11.586;2024-02-15T10:41:47;203.85;;;143.75;;
47866;SDS011;33628;50.806;11.586;2024-02-15T10:44:15;341.00;;;222.23;;
47866;SDS011;33628;50.806;11.586;2024-02-15T10:46:47;592.38;;;387.40;;
47866;SDS011;33628;50.806;11.586;2024-02-15T10:49:18;644.85;;;431.55;;
47866;SDS011;33628;50.806;11.586;2024-02-15T10:51:48;512.58;;;339.38;;
47866;SDS011;33628;50.806;11.586;2024-02-15T10:54:19;601.22;;;414.80;;
47866;SDS011;33628;50.806;11.586;2024-02-15T10:56:56;808.28;;;569.00;;
47866;SDS011;33628;50.806;11.586;2024-02-15T10:59:28;1267.30;;;958.78;;
47866;SDS011;33628;50.806;11.586;2024-02-15T11:02:00;992.22;;;727.47;;
47866;SDS011;33628;50.806;11.586;2024-02-15T11:04:30;1220.07;;;913.45;;
47866;SDS011;33628;50.806;11.586;2024-02-15T11:06:58;632.08;;;418.20;;
47866;SDS011;33628;50.806;11.586;2024-02-15T11:09:27;697.83;;;472.02;;
47866;SDS011;33628;50.806;11.586;2024-02-15T11:11:56;1163.13;;;857.53;;
47866;SDS011;33628;50.806;11.586;2024-02-15T11:14:23;1768.32;;;999.90;;
47866;SDS011;33628;50.806;11.586;2024-02-15T11:16:50;1534.20;;;999.90;;
47866;SDS011;33628;50.806;11.586;2024-02-15T11:22:11;1177.93;;;905.20;;
47866;SDS011;33628;50.806;11.586;2024-02-15T11:24:45;1999.90;;;999.90;;
47866;SDS011;33628;50.806;11.586;2024-02-15T11:27:23;1999.90;;;999.90;;
47866;SDS011;33628;50.806;11.586;2024-02-15T11:29:53;1999.90;;;999.90;;
47866;SDS011;33628;50.806;11.586;2024-02-15T11:32:34;1986.78;;;999.90;;
47866;SDS011;33628;50.806;11.586;2024-02-15T11:35:02;6.22;;;2.67;;
47866;SDS011;33628;50.806;11.586;2024-02-15T11:43:50;608.35;;;400.23;;
47866;SDS011;33628;50.806;11.586;2024-02-15T11:46:24;1190.50;;;693.40;;
47866;SDS011;33628;50.806;11.586;2024-02-15T11:48:52;1225.85;;;703.13;;
47866;SDS011;33628;50.806;11.586;2024-02-15T11:51:27;244.40;;;139.90;;
47866;SDS011;33628;50.806;11.586;2024-02-15T11:54:04;5.10;;;3.28;;
47866;SDS011;33628;50.806;11.586;2024-02-15T11:56:32;9.38;;;4.80;;
47866;SDS011;33628;50.806;11.586;2024-02-15T11:59:04;13.68;;;4.72;;
47866;SDS011;33628;50.806;11.586;2024-02-15T12:01:36;45.17;;;27.77;;
47866;SDS011;33628;50.806;11.586;2024-02-15T12:04:21;2.55;;;1.48;;
47866;SDS011;33628;50.806;11.586;2024-02-15T12:07:06;18.30;;;9.20;;
47866;SDS011;33628;50.806;11.586;2024-02-15T12:09:57;1937.97;;;999.90;;
47866;SDS011;33628;50.806;11.586;2024-02-15T12:12:50;124.35;;;63.55;;
47866;SDS011;33628;50.806;11.586;2024-02-15T12:15:36;12.10;;;5.75;;
47866;SDS011;33628;50.806;11.586;2024-02-15T12:18:21;8.15;;;5.03;;
47866;SDS011;33628;50.806;11.586;2024-02-15T12:21:07;5.35;;;1.83;;
47866;SDS011;33628;50.806;11.586;2024-02-15T12:23:37;2.10;;;1.08;;
47866;SDS011;33628;50.806;11.586;2024-02-15T12:26:04;1.35;;;1.05;;
47866;SDS011;33628;50.806;11.586;2024-02-15T12:28:30;2.45;;;1.10;;
47866;SDS011;33628;50.806;11.586;2024-02-15T12:30:58;80.85;;;51.25;;
47866;SDS011;33628;50.806;11.586;2024-02-15T12:33:25;16.85;;;8.45;;
47866;SDS011;33628;50.806;11.586;2024-02-15T12:36:02;3.00;;;1.33;;
47866;SDS011;33628;50.806;11.586;2024-02-15T12:38:30;4.65;;;1.55;;
47866;SDS011;33628;50.806;11.586;2024-02-15T12:40:56;195.98;;;117.55;;
47866;SDS011;33628;50.806;11.586;2024-02-15T12:43:23;131.65;;;78.13;;
47866;SDS011;33628;50.806;11.586;2024-02-15T12:45:49;20.13;;;10.18;;
47866;SDS011;33628;50.806;11.586;2024-02-15T12:48:18;2.10;;;1.20;;
47866;SDS011;33628;50.806;11.586;2024-02-15T12:50:44;1.80;;;1.05;;
47866;SDS011;33628;50.806;11.586;2024-02-15T12:53:11;2.75;;;1.52;;
47866;SDS011;33628;50.806;11.586;2024-02-15T12:55:38;3.25;;;1.40;;
47866;SDS011;33628;50.806;11.586;2024-02-15T12:58:07;2.33;;;1.08;;
47866;SDS011;33628;50.806;11.586;2024-02-15T13:00:39;3.13;;;1.38;;
47866;SDS011;33628;50.806;11.586;2024-02-15T13:03:06;3.22;;;1.45;;
47866;SDS011;33628;50.806;11.586;2024-02-15T13:05:37;2.70;;;1.50;;
47866;SDS011;33628;50.806;11.586;2024-02-15T13:08:04;2.97;;;1.45;;
47866;SDS011;33628;50.806;11.586;2024-02-15T13:10:36;2.60;;;1.40;;
47866;SDS011;33628;50.806;11.586;2024-02-15T13:13:04;1.98;;;1.20;;
47866;SDS011;33628;50.806;11.586;2024-02-15T13:15:37;2.47;;;1.35;;
47866;SDS011;33628;50.806;11.586;2024-02-15T13:18:04;3.17;;;1.15;;
47866;SDS011;33628;50.806;11.586;2024-02-15T13:20:31;2.22;;;1.48;;
47866;SDS011;33628;50.806;11.586;2024-02-15T13:23:00;3.40;;;1.50;;
47866;SDS011;33628;50.806;11.586;2024-02-15T13:25:48;2.33;;;1.73;;
47866;SDS011;33628;50.806;11.586;2024-02-15T13:28:15;2.67;;;1.73;;
47866;SDS011;33628;50.806;11.586;2024-02-15T13:30:42;4.53;;;1.50;;
47866;SDS011;33628;50.806;11.586;2024-02-15T13:33:10;6.43;;;1.50;;
47866;SDS011;33628;50.806;11.586;2024-02-15T13:35:37;4.82;;;1.35;;
47866;SDS011;33628;50.806;11.586;2024-02-15T13:38:05;2.20;;;1.25;;
47866;SDS011;33628;50.806;11.586;2024-02-15T13:40:34;2.83;;;1.10;;
47866;SDS011;33628;50.806;11.586;2024-02-15T13:43:01;3.53;;;1.58;;
47866;SDS011;33628;50.806;11.586;2024-02-15T13:45:31;4.47;;;1.63;;
47866;SDS011;33628;50.806;11.586;2024-02-15T13:47:59;4.68;;;1.40;;
47866;SDS011;33628;50.806;11.586;2024-02-15T13:50:29;4.15;;;1.73;;
47866;SDS011;33628;50.806;11.586;2024-02-15T13:52:58;3.05;;;1.20;;
47866;SDS011;33628;50.806;11.586;2024-02-15T13:55:27;3.20;;;1.63;;
47866;SDS011;33628;50.806;11.586;2024-02-15T13:57:54;3.17;;;1.52;;
47866;SDS011;33628;50.806;11.586;2024-02-15T14:00:24;2.83;;;1.27;;
47866;SDS011;33628;50.806;11.586;2024-02-15T14:02:59;2.55;;;1.08;;
47866;SDS011;33628;50.806;11.586;2024-02-15T14:05:27;2.53;;;0.93;;
47866;SDS011;33628;50.806;11.586;2024-02-15T14:07:55;5.13;;;1.20;;
47866;SDS011;33628;50.806;11.586;2024-02-15T14:10:22;3.60;;;1.20;;
47866;SDS011;33628;50.806;11.586;2024-02-15T14:12:51;6.78;;;1.70;;
47866;SDS011;33628;50.806;11.586;2024-02-15T14:15:18;6.57;;;1.83;;
47866;SDS011;33628;50.806;11.586;2024-02-15T14:17:45;2.00;;;1.02;;
47866;SDS011;33628;50.806;11.586;2024-02-15T14:20:12;5.10;;;1.10;;
47866;SDS011;33628;50.806;11.586;2024-02-15T14:22:39;3.13;;;1.13;;
47866;SDS011;33628;50.806;11.586;2024-02-15T14:25:06;5.80;;;1.27;;
47866;SDS011;33628;50.806;11.586;2024-02-15T14:27:37;4.05;;;1.10;;
47866;SDS011;33628;50.806;11.586;2024-02-15T14:30:07;3.17;;;1.60;;
47866;SDS011;33628;50.806;11.586;2024-02-15T14:32:52;3.38;;;1.45;;
47866;SDS011;33628;50.806;11.586;2024-02-15T14:35:34;3.17;;;1.40;;